sensor_id;sensor_type;location;lat;lon;timestamp;pressure;altitude;pressure_sealevel;temperature;humidity
44765;BME280;30484;52.382;5.260;2023-02-04T00:01:33;103359.13;;;11.26;100.00
44765;BME280;30484;52.382;5.260;2023-02-04T00:04:02;103360.94;;;11.25;100.00
44765;BME280;30484;52.382;5.260;2023-02-04T00:06:31;103367.59;;;10.90;100.00
44765;BME280;30484;52.382;5.260;2023-02-04T00:08:59;103367.88;;;11.40;100.00
44765;BME280;30484;52.382;5.260;2023-02-04T00:11:29;103362.22;;;10.93;100.00
44765;BME280;30484;52.382;5.260;2023-02-04T00:13:58;103365.00;;;10.82;100.00
44765;BME280;30484;52.382;5.260;2023-02-04T00:16:27;103365.63;;;11.08;100.00
44765;BME280;30484;52.382;5.260;2023-02-04T00:18:56;103366.94;;;10.68;100.00
44765;BME280;30484;52.382;5.260;2023-02-04T00:21:25;103370.88;;;11.15;100.00
44765;BME280;30484;52.382;5.260;2023-02-04T00:23:54;103379.00;;;11.08;100.00
44765;BME280;30484;52.382;5.260;2023-02-04T00:26:22;103381.13;;;10.76;100.00
44765;BME280;30484;52.382;5.260;2023-02-04T00:28:52;103381.16;;;10.70;100.00
44765;BME280;30484;52.382;5.260;2023-02-04T00:31:21;103386.25;;;10.98;100.00
44765;BME280;30484;52.382;5.260;2023-02-04T00:33:49;103380.94;;;10.95;100.00
44765;BME280;30484;52.382;5.260;2023-02-04T00:36:18;103381.63;;;11.12;100.00
44765;BME280;30484;52.382;5.260;2023-02-04T00:38:46;103378.28;;;10.90;100.00
44765;BME280;30484;52.382;5.260;2023-02-04T00:41:15;103376.72;;;10.72;100.00
44765;BME280;30484;52.382;5.260;2023-02-04T00:43:45;103384.69;;;10.77;100.00
44765;BME280;30484;52.382;5.260;2023-02-04T00:46:16;103389.94;;;10.84;100.00
44765;BME280;30484;52.382;5.260;2023-02-04T00:48:45;103389.28;;;10.62;100.00
44765;BME280;30484;52.382;5.260;2023-02-04T00:51:13;103392.88;;;10.58;100.00
44765;BME280;30484;52.382;5.260;2023-02-04T00:53:42;103398.91;;;10.80;100.00
44765;BME280;30484;52.382;5.260;2023-02-04T00:56:11;103395.28;;;10.84;100.00
44765;BME280;30484;52.382;5.260;2023-02-04T00:58:42;103404.16;;;10.90;100.00
44765;BME280;30484;52.382;5.260;2023-02-04T01:01:14;103408.66;;;10.84;100.00
44765;BME280;30484;52.382;5.260;2023-02-04T01:03:43;103409.72;;;10.68;100.00
44765;BME280;30484;52.382;5.260;2023-02-04T01:06:12;103408.63;;;10.89;100.00
44765;BME280;30484;52.382;5.260;2023-02-04T01:08:40;103413.41;;;10.56;100.00
44765;BME280;30484;52.382;5.260;2023-02-04T01:11:09;103416.84;;;10.66;100.00
44765;BME280;30484;52.382;5.260;2023-02-04T01:13:38;103410.72;;;10.59;100.00
44765;BME280;30484;52.382;5.260;2023-02-04T01:16:07;103416.88;;;10.67;100.00
44765;BME280;30484;52.382;5.260;2023-02-04T01:18:38;103424.13;;;10.55;100.00
44765;BME280;30484;52.382;5.260;2023-02-04T01:21:28;103431.03;;;10.76;100.00
44765;BME280;30484;52.382;5.260;2023-02-04T01:28:36;103427.75;;;10.44;100.00
44765;BME280;30484;52.382;5.260;2023-02-04T01:35:02;103449.72;;;10.79;100.00
44765;BME280;30484;52.382;5.260;2023-02-04T01:38:18;103459.59;;;10.72;100.00
44765;BME280;30484;52.382;5.260;2023-02-04T01:47:36;103459.91;;;10.27;100.00
44765;BME280;30484;52.382;5.260;2023-02-04T01:50:09;103464.19;;;10.53;100.00
44765;BME280;30484;52.382;5.260;2023-02-04T01:56:40;103480.31;;;10.44;100.00
44765;BME280;30484;52.382;5.260;2023-02-04T02:25:00;103494.50;;;10.53;100.00
44765;BME280;30484;52.382;5.260;2023-02-04T02:27:30;103488.34;;;10.45;100.00
44765;BME280;30484;52.382;5.260;2023-02-04T02:29:58;103488.34;;;10.45;100.00
44765;BME280;30484;52.382;5.260;2023-02-04T02:32:27;103486.53;;;10.46;100.00
44765;BME280;30484;52.382;5.260;2023-02-04T02:34:58;103482.16;;;10.34;100.00
44765;BME280;30484;52.382;5.260;2023-02-04T02:37:27;103485.50;;;10.67;100.00
44765;BME280;30484;52.382;5.260;2023-02-04T02:39:57;103493.63;;;10.51;100.00
44765;BME280;30484;52.382;5.260;2023-02-04T02:42:28;103496.19;;;10.65;100.00
44765;BME280;30484;52.382;5.260;2023-02-04T02:44:57;103496.09;;;10.78;100.00
44765;BME280;30484;52.382;5.260;2023-02-04T02:47:26;103498.72;;;10.82;100.00
44765;BME280;30484;52.382;5.260;2023-02-04T02:49:55;103500.66;;;10.66;100.00
44765;BME280;30484;52.382;5.260;2023-02-04T02:52:24;103498.81;;;10.71;100.00
44765;BME280;30484;52.382;5.260;2023-02-04T02:54:54;103506.84;;;10.70;100.00
44765;BME280;30484;52.382;5.260;2023-02-04T02:57:23;103503.34;;;10.63;100.00
44765;BME280;30484;52.382;5.260;2023-02-04T02:59:56;103505.25;;;10.46;100.00
44765;BME280;30484;52.382;5.260;2023-02-04T03:02:25;103506.19;;;10.39;100.00
44765;BME280;30484;52.382;5.260;2023-02-04T03:04:57;103502.84;;;9.98;100.00
44765;BME280;30484;52.382;5.260;2023-02-04T03:07:28;103501.84;;;10.14;100.00
44765;BME280;30484;52.382;5.260;2023-02-04T03:09:56;103505.44;;;10.13;100.00
44765;BME280;30484;52.382;5.260;2023-02-04T03:12:25;103501.09;;;9.91;100.00
44765;BME280;30484;52.382;5.260;2023-02-04T03:14:59;103501.94;;;10.00;100.00
44765;BME280;30484;52.382;5.260;2023-02-04T03:17:28;103499.25;;;10.02;100.00
44765;BME280;30484;52.382;5.260;2023-02-04T03:19:58;103502.81;;;10.04;100.00
44765;BME280;30484;52.382;5.260;2023-02-04T03:22:27;103493.16;;;9.75;100.00
44765;BME280;30484;52.382;5.260;2023-02-04T03:24:56;103493.06;;;9.97;100.00
44765;BME280;30484;52.382;5.260;2023-02-04T03:27:25;103494.88;;;9.84;100.00
44765;BME280;30484;52.382;5.260;2023-02-04T03:29:53;103490.41;;;9.94;100.00
44765;BME280;30484;52.382;5.260;2023-02-04T03:32:23;103486.94;;;9.76;100.00
44765;BME280;30484;52.382;5.260;2023-02-04T03:34:52;103496.72;;;9.74;100.00
44765;BME280;30484;52.382;5.260;2023-02-04T03:37:21;103498.56;;;9.49;100.00
44765;BME280;30484;52.382;5.260;2023-02-04T03:39:52;103508.34;;;9.61;100.00
44765;BME280;30484;52.382;5.260;2023-02-04T03:42:21;103503.88;;;9.60;100.00
44765;BME280;30484;52.382;5.260;2023-02-04T03:44:51;103506.56;;;9.60;100.00
44765;BME280;30484;52.382;5.260;2023-02-04T03:47:19;103509.28;;;9.40;100.00
44765;BME280;30484;52.382;5.260;2023-02-04T03:49:49;103517.22;;;9.60;100.00
44765;BME280;30484;52.382;5.260;2023-02-04T03:52:17;103526.16;;;9.49;100.00
44765;BME280;30484;52.382;5.260;2023-02-04T03:54:46;103519.88;;;9.67;100.00
44765;BME280;30484;52.382;5.260;2023-02-04T03:57:15;103516.28;;;9.73;100.00
44765;BME280;30484;52.382;5.260;2023-02-04T03:59:45;103517.19;;;9.72;100.00
44765;BME280;30484;52.382;5.260;2023-02-04T04:02:13;103526.06;;;9.74;100.00
44765;BME280;30484;52.382;5.260;2023-02-04T04:04:42;103518.03;;;9.85;100.00
44765;BME280;30484;52.382;5.260;2023-02-04T04:07:12;103516.28;;;9.78;100.00
44765;BME280;30484;52.382;5.260;2023-02-04T04:09:41;103514.47;;;9.84;100.00
44765;BME280;30484;52.382;5.260;2023-02-04T04:12:09;103529.66;;;9.76;100.00
44765;BME280;30484;52.382;5.260;2023-02-04T04:14:37;103527.78;;;9.97;100.00
44765;BME280;30484;52.382;5.260;2023-02-04T04:17:06;103533.13;;;9.95;100.00
44765;BME280;30484;52.382;5.260;2023-02-04T04:19:34;103536.63;;;10.10;100.00
44765;BME280;30484;52.382;5.260;2023-02-04T04:22:03;103533.06;;;10.11;100.00
44765;BME280;30484;52.382;5.260;2023-02-04T04:24:33;103535.66;;;10.22;100.00
44765;BME280;30484;52.382;5.260;2023-02-04T04:27:02;103541.19;;;9.88;100.00
44765;BME280;30484;52.382;5.260;2023-02-04T04:29:31;103532.16;;;10.15;100.00
44765;BME280;30484;52.382;5.260;2023-02-04T04:31:59;103541.94;;;10.19;100.00
44765;BME280;30484;52.382;5.260;2023-02-04T04:34:28;103544.59;;;10.21;100.00
44765;BME280;30484;52.382;5.260;2023-02-04T04:36:57;103539.16;;;10.36;100.00
44765;BME280;30484;52.382;5.260;2023-02-04T04:39:25;103548.06;;;10.38;100.00
44765;BME280;30484;52.382;5.260;2023-02-04T04:41:55;103551.78;;;10.08;100.00
44765;BME280;30484;52.382;5.260;2023-02-04T04:44:24;103554.31;;;10.34;100.00
44765;BME280;30484;52.382;5.260;2023-02-04T04:46:52;103547.25;;;10.17;100.00
44765;BME280;30484;52.382;5.260;2023-02-04T04:49:22;103538.44;;;10.00;100.00
44765;BME280;30484;52.382;5.260;2023-02-04T04:51:51;103534.94;;;9.87;100.00
44765;BME280;30484;52.382;5.260;2023-02-04T04:54:34;103544.41;;;10.56;100.00
44765;BME280;30484;52.382;5.260;2023-02-04T04:57:05;103531.09;;;10.47;100.00
44765;BME280;30484;52.382;5.260;2023-02-04T04:59:34;103539.03;;;10.58;100.00
44765;BME280;30484;52.382;5.260;2023-02-04T05:02:02;103539.84;;;10.66;100.00
44765;BME280;30484;52.382;5.260;2023-02-04T05:04:31;103542.59;;;10.57;100.00
44765;BME280;30484;52.382;5.260;2023-02-04T05:06:59;103543.59;;;10.43;100.00
44765;BME280;30484;52.382;5.260;2023-02-04T05:09:28;103547.13;;;10.45;100.00
44765;BME280;30484;52.382;5.260;2023-02-04T05:11:57;103545.28;;;10.57;100.00
44765;BME280;30484;52.382;5.260;2023-02-04T05:14:27;103551.53;;;10.54;100.00
44765;BME280;30484;52.382;5.260;2023-02-04T05:16:56;103552.44;;;10.51;100.00
44765;BME280;30484;52.382;5.260;2023-02-04T05:19:25;103544.44;;;10.47;100.00
44765;BME280;30484;52.382;5.260;2023-02-04T05:21:54;103550.56;;;10.63;100.00
44765;BME280;30484;52.382;5.260;2023-02-04T05:24:23;103547.06;;;10.58;100.00
44765;BME280;30484;52.382;5.260;2023-02-04T05:26:52;103556.88;;;10.52;100.00
44765;BME280;30484;52.382;5.260;2023-02-04T05:29:20;103561.38;;;10.44;100.00
44765;BME280;30484;52.382;5.260;2023-02-04T05:31:50;103559.66;;;10.37;100.00
44765;BME280;30484;52.382;5.260;2023-02-04T05:34:19;103550.78;;;10.30;100.00
44765;BME280;30484;52.382;5.260;2023-02-04T05:36:47;103554.38;;;10.25;100.00
44765;BME280;30484;52.382;5.260;2023-02-04T05:39:16;103542.78;;;10.24;100.00
44765;BME280;30484;52.382;5.260;2023-02-04T05:41:45;103552.59;;;10.24;100.00
44765;BME280;30484;52.382;5.260;2023-02-04T05:44:14;103549.09;;;10.09;100.00
44765;BME280;30484;52.382;5.260;2023-02-04T05:46:44;103551.72;;;10.15;100.00
44765;BME280;30484;52.382;5.260;2023-02-04T05:49:14;103546.38;;;10.14;100.00
44765;BME280;30484;52.382;5.260;2023-02-04T05:51:44;103556.16;;;10.19;100.00
44765;BME280;30484;52.382;5.260;2023-02-04T05:54:13;103555.28;;;10.19;100.00
44765;BME280;30484;52.382;5.260;2023-02-04T05:56:46;103565.13;;;10.08;100.00
44765;BME280;30484;52.382;5.260;2023-02-04T05:59:14;103568.66;;;10.11;100.00
44765;BME280;30484;52.382;5.260;2023-02-04T06:01:43;103566.84;;;10.19;100.00
44765;BME280;30484;52.382;5.260;2023-02-04T06:04:13;103557.03;;;10.26;100.00
44765;BME280;30484;52.382;5.260;2023-02-04T06:06:43;103565.03;;;10.28;100.00
44765;BME280;30484;52.382;5.260;2023-02-04T06:09:11;103565.06;;;10.20;100.00
44765;BME280;30484;52.382;5.260;2023-02-04T06:11:40;103579.22;;;10.33;100.00
44765;BME280;30484;52.382;5.260;2023-02-04T06:14:09;103578.34;;;10.37;100.00
44765;BME280;30484;52.382;5.260;2023-02-04T06:16:38;103576.59;;;10.38;100.00
44765;BME280;30484;52.382;5.260;2023-02-04T06:19:07;103591.69;;;10.40;100.00
44765;BME280;30484;52.382;5.260;2023-02-04T06:21:37;103594.41;;;10.31;100.00
44765;BME280;30484;52.382;5.260;2023-02-04T06:24:05;103597.94;;;10.33;100.00
44765;BME280;30484;52.382;5.260;2023-02-04T06:26:38;103607.78;;;10.34;100.00
44765;BME280;30484;52.382;5.260;2023-02-04T06:29:07;103615.81;;;10.34;100.00
44765;BME280;30484;52.382;5.260;2023-02-04T06:31:37;103614.00;;;10.34;100.00
44765;BME280;30484;52.382;5.260;2023-02-04T06:34:07;103612.22;;;10.33;100.00
44765;BME280;30484;52.382;5.260;2023-02-04T06:36:39;103624.69;;;10.31;100.00
44765;BME280;30484;52.382;5.260;2023-02-04T06:39:08;103627.34;;;10.30;100.00
44765;BME280;30484;52.382;5.260;2023-02-04T06:41:37;103633.59;;;10.32;100.00
44765;BME280;30484;52.382;5.260;2023-02-04T06:44:05;103638.03;;;10.33;100.00
44765;BME280;30484;52.382;5.260;2023-02-04T06:46:33;103642.53;;;10.25;100.00
44765;BME280;30484;52.382;5.260;2023-02-04T06:49:02;103638.06;;;10.28;100.00
44765;BME280;30484;52.382;5.260;2023-02-04T06:51:31;103637.16;;;10.32;100.00
44765;BME280;30484;52.382;5.260;2023-02-04T06:54:01;103646.06;;;10.30;100.00
44765;BME280;30484;52.382;5.260;2023-02-04T06:56:30;103646.03;;;10.33;100.00
44765;BME280;30484;52.382;5.260;2023-02-04T06:58:59;103651.38;;;10.33;100.00
44765;BME280;30484;52.382;5.260;2023-02-04T07:01:29;103661.22;;;10.34;100.00
44765;BME280;30484;52.382;5.260;2023-02-04T07:04:02;103659.44;;;10.34;100.00
44765;BME280;30484;52.382;5.260;2023-02-04T07:06:30;103669.22;;;10.32;100.00
44765;BME280;30484;52.382;5.260;2023-02-04T07:09:00;103668.34;;;10.29;100.00
44765;BME280;30484;52.382;5.260;2023-02-04T07:11:30;103670.16;;;10.24;100.00
44765;BME280;30484;52.382;5.260;2023-02-04T07:13:59;103672.81;;;10.25;100.00
44765;BME280;30484;52.382;5.260;2023-02-04T07:16:30;103676.41;;;10.18;100.00
44765;BME280;30484;52.382;5.260;2023-02-04T07:19:17;103675.50;;;10.24;100.00
44765;BME280;30484;52.382;5.260;2023-02-04T07:21:56;103676.44;;;10.12;100.00
44765;BME280;30484;52.382;5.260;2023-02-04T07:24:27;103683.56;;;10.08;100.00
44765;BME280;30484;52.382;5.260;2023-02-04T07:26:56;103684.44;;;10.09;100.00
44765;BME280;30484;52.382;5.260;2023-02-04T07:29:24;103684.44;;;10.12;100.00
44765;BME280;30484;52.382;5.260;2023-02-04T07:31:54;103687.09;;;10.19;100.00
44765;BME280;30484;52.382;5.260;2023-02-04T07:34:23;103695.09;;;10.23;100.00
44765;BME280;30484;52.382;5.260;2023-02-04T07:36:51;103684.41;;;10.21;100.00
44765;BME280;30484;52.382;5.260;2023-02-04T07:39:21;103688.84;;;10.25;100.00
44765;BME280;30484;52.382;5.260;2023-02-04T07:41:53;103695.06;;;10.29;100.00
44765;BME280;30484;52.382;5.260;2023-02-04T07:44:21;103702.19;;;10.31;100.00
44765;BME280;30484;52.382;5.260;2023-02-04T07:46:49;103699.53;;;10.34;100.00
44765;BME280;30484;52.382;5.260;2023-02-04T07:49:18;103714.66;;;10.43;100.00
44765;BME280;30484;52.382;5.260;2023-02-04T07:51:48;103707.50;;;10.45;100.00
44765;BME280;30484;52.382;5.260;2023-02-04T07:54:17;103704.81;;;10.51;100.00
44765;BME280;30484;52.382;5.260;2023-02-04T07:56:46;103708.34;;;10.58;100.00
44765;BME280;30484;52.382;5.260;2023-02-04T07:59:15;103715.50;;;10.59;100.00
44765;BME280;30484;52.382;5.260;2023-02-04T08:01:44;103718.19;;;10.56;100.00
44765;BME280;30484;52.382;5.260;2023-02-04T08:04:14;103717.25;;;10.66;100.00
44765;BME280;30484;52.382;5.260;2023-02-04T08:06:45;103716.34;;;10.69;100.00
44765;BME280;30484;52.382;5.260;2023-02-04T08:09:18;103728.84;;;10.64;100.00
44765;BME280;30484;52.382;5.260;2023-02-04T08:11:46;103724.31;;;10.75;100.00
44765;BME280;30484;52.382;5.260;2023-02-04T08:14:17;103735.00;;;10.80;100.00
44765;BME280;30484;52.382;5.260;2023-02-04T08:16:45;103738.56;;;10.80;100.00
44765;BME280;30484;52.382;5.260;2023-02-04T08:19:14;103741.28;;;10.68;100.00
44765;BME280;30484;52.382;5.260;2023-02-04T08:21:45;103737.63;;;10.89;100.00
44765;BME280;30484;52.382;5.260;2023-02-04T08:24:15;103739.44;;;10.82;100.00
44765;BME280;30484;52.382;5.260;2023-02-04T08:26:44;103754.50;;;10.97;100.00
44765;BME280;30484;52.382;5.260;2023-02-04T08:29:18;103749.25;;;10.85;100.00
44765;BME280;30484;52.382;5.260;2023-02-04T08:31:47;103759.88;;;10.99;100.00
44765;BME280;30484;52.382;5.260;2023-02-04T08:34:15;103758.91;;;11.14;100.00
44765;BME280;30484;52.382;5.260;2023-02-04T08:36:44;103766.06;;;11.07;100.00
44765;BME280;30484;52.382;5.260;2023-02-04T08:39:12;103764.31;;;11.01;100.00
44765;BME280;30484;52.382;5.260;2023-02-04T08:41:41;103759.00;;;10.94;100.00
44765;BME280;30484;52.382;5.260;2023-02-04T08:44:13;103766.09;;;11.04;100.00
44765;BME280;30484;52.382;5.260;2023-02-04T08:46:50;103759.00;;;10.94;100.00
44765;BME280;30484;52.382;5.260;2023-02-04T08:49:23;103765.19;;;11.03;100.00
44765;BME280;30484;52.382;5.260;2023-02-04T08:51:52;103755.34;;;11.12;100.00
44765;BME280;30484;52.382;5.260;2023-02-04T08:54:21;103762.41;;;11.23;100.00
44765;BME280;30484;52.382;5.260;2023-02-04T08:56:50;103771.41;;;11.07;100.00
44765;BME280;30484;52.382;5.260;2023-02-04T08:59:18;103766.00;;;11.19;100.00
44765;BME280;30484;52.382;5.260;2023-02-04T09:01:52;103778.41;;;11.36;100.00
44765;BME280;30484;52.382;5.260;2023-02-04T09:04:22;103774.91;;;11.25;100.00
44765;BME280;30484;52.382;5.260;2023-02-04T09:06:51;103772.22;;;11.26;100.00
44765;BME280;30484;52.382;5.260;2023-02-04T09:09:20;103770.47;;;11.16;100.00
44765;BME280;30484;52.382;5.260;2023-02-04T09:11:52;103772.97;;;11.45;100.00
44765;BME280;30484;52.382;5.260;2023-02-04T09:14:21;103771.31;;;11.29;100.00
44765;BME280;30484;52.382;5.260;2023-02-04T09:16:51;103774.88;;;11.28;100.00
44765;BME280;30484;52.382;5.260;2023-02-04T09:19:19;103778.44;;;11.27;100.00
44765;BME280;30484;52.382;5.260;2023-02-04T09:21:52;103781.91;;;11.47;100.00
44765;BME280;30484;52.382;5.260;2023-02-04T09:24:22;103784.59;;;11.41;100.00
44765;BME280;30484;52.382;5.260;2023-02-04T09:26:50;103778.13;;;11.70;100.00
44765;BME280;30484;52.382;5.260;2023-02-04T09:29:19;103787.16;;;11.60;100.00
44765;BME280;30484;52.382;5.260;2023-02-04T09:31:48;103782.69;;;11.58;100.00
44765;BME280;30484;52.382;5.260;2023-02-04T09:34:18;103780.69;;;11.90;100.00
44765;BME280;30484;52.382;5.260;2023-02-04T09:36:46;103776.31;;;11.75;100.00
44765;BME280;30484;52.382;5.260;2023-02-04T09:39:15;103785.38;;;11.62;100.00
44765;BME280;30484;52.382;5.260;2023-02-04T09:41:44;103789.88;;;11.55;100.00
44765;BME280;30484;52.382;5.260;2023-02-04T09:44:17;103791.34;;;11.98;100.00
44765;BME280;30484;52.382;5.260;2023-02-04T09:46:50;103789.50;;;12.06;100.00
44765;BME280;30484;52.382;5.260;2023-02-04T09:49:20;103790.34;;;12.08;100.00
44765;BME280;30484;52.382;5.260;2023-02-04T09:51:50;103792.09;;;12.12;100.00
44765;BME280;30484;52.382;5.260;2023-02-04T09:54:21;103788.34;;;12.32;100.00
44765;BME280;30484;52.382;5.260;2023-02-04T09:56:51;103792.84;;;12.28;100.00
44765;BME280;30484;52.382;5.260;2023-02-04T09:59:22;103793.44;;;12.56;100.00
44765;BME280;30484;52.382;5.260;2023-02-04T10:01:56;103807.53;;;12.72;100.00
44765;BME280;30484;52.382;5.260;2023-02-04T10:04:28;103809.78;;;13.08;100.00
44765;BME280;30484;52.382;5.260;2023-02-04T10:06:57;103806.84;;;13.26;100.00
44765;BME280;30484;52.382;5.260;2023-02-04T10:09:27;103807.94;;;13.13;100.00
44765;BME280;30484;52.382;5.260;2023-02-04T10:11:55;103810.47;;;13.22;100.00
44765;BME280;30484;52.382;5.260;2023-02-04T10:14:24;103815.72;;;13.35;100.00
44765;BME280;30484;52.382;5.260;2023-02-04T10:16:57;103809.22;;;14.06;100.00
44765;BME280;30484;52.382;5.260;2023-02-04T10:19:30;103814.53;;;14.09;100.00
44765;BME280;30484;52.382;5.260;2023-02-04T10:21:59;103814.28;;;14.24;100.00
44765;BME280;30484;52.382;5.260;2023-02-04T10:24:28;103814.78;;;13.95;100.00
44765;BME280;30484;52.382;5.260;2023-02-04T10:27:08;103814.66;;;14.03;100.00
44765;BME280;30484;52.382;5.260;2023-02-04T10:29:38;103822.38;;;14.23;100.00
44765;BME280;30484;52.382;5.260;2023-02-04T10:32:32;103815.16;;;14.25;100.00
44765;BME280;30484;52.382;5.260;2023-02-04T10:35:03;103819.44;;;14.37;100.00
44765;BME280;30484;52.382;5.260;2023-02-04T10:37:31;103808.16;;;14.64;100.00
44765;BME280;30484;52.382;5.260;2023-02-04T10:40:00;103813.78;;;14.96;100.00
44765;BME280;30484;52.382;5.260;2023-02-04T10:42:30;103816.50;;;15.36;100.00
44765;BME280;30484;52.382;5.260;2023-02-04T10:45:01;103813.53;;;15.08;100.00
44765;BME280;30484;52.382;5.260;2023-02-04T10:47:30;103817.19;;;15.45;100.00
44765;BME280;30484;52.382;5.260;2023-02-04T10:50:04;103808.38;;;15.38;100.00
44765;BME280;30484;52.382;5.260;2023-02-04T10:52:36;103820.09;;;14.96;100.00
44765;BME280;30484;52.382;5.260;2023-02-04T10:55:15;103816.94;;;14.74;100.00
44765;BME280;30484;52.382;5.260;2023-02-04T10:57:46;103820.31;;;15.28;100.00
44765;BME280;30484;52.382;5.260;2023-02-04T11:00:18;103817.41;;;14.95;100.00
44765;BME280;30484;52.382;5.260;2023-02-04T11:02:56;103816.75;;;15.26;100.00
44765;BME280;30484;52.382;5.260;2023-02-04T11:05:31;103812.66;;;15.47;100.00
44765;BME280;30484;52.382;5.260;2023-02-04T11:08:20;103806.22;;;15.54;100.00
44765;BME280;30484;52.382;5.260;2023-02-04T11:10:51;103810.13;;;15.41;100.00
44765;BME280;30484;52.382;5.260;2023-02-04T11:13:25;103802.09;;;15.38;100.00
44765;BME280;30484;52.382;5.260;2023-02-04T11:16:23;103794.53;;;15.14;100.00
44765;BME280;30484;52.382;5.260;2023-02-04T11:18:54;103804.44;;;15.53;100.00
44765;BME280;30484;52.382;5.260;2023-02-04T11:21:40;103794.38;;;14.81;100.00
44765;BME280;30484;52.382;5.260;2023-02-04T11:24:24;103798.31;;;15.45;100.00
44765;BME280;30484;52.382;5.260;2023-02-04T11:27:06;103797.50;;;15.80;100.00
44765;BME280;30484;52.382;5.260;2023-02-04T11:29:39;103809.28;;;15.37;100.00
44765;BME280;30484;52.382;5.260;2023-02-04T11:32:30;103811.06;;;14.97;100.00
44765;BME280;30484;52.382;5.260;2023-02-04T11:35:23;103807.78;;;15.25;100.00
44765;BME280;30484;52.382;5.260;2023-02-04T11:38:25;103807.22;;;15.11;100.00
44765;BME280;30484;52.382;5.260;2023-02-04T11:41:04;103808.56;;;14.90;100.00
44765;BME280;30484;52.382;5.260;2023-02-04T11:43:38;103807.31;;;14.62;100.00
44765;BME280;30484;52.382;5.260;2023-02-04T11:46:13;103808.28;;;14.57;100.00
44765;BME280;30484;52.382;5.260;2023-02-04T11:48:45;103797.03;;;14.83;100.00
44765;BME280;30484;52.382;5.260;2023-02-04T11:51:15;103801.06;;;15.04;100.00
44765;BME280;30484;52.382;5.260;2023-02-04T11:53:50;103800.88;;;15.12;100.00
44765;BME280;30484;52.382;5.260;2023-02-04T11:56:21;103799.78;;;15.22;100.00
44765;BME280;30484;52.382;5.260;2023-02-04T11:58:56;103799.69;;;15.25;100.00
44765;BME280;30484;52.382;5.260;2023-02-04T12:01:32;103799.56;;;15.31;100.00
44765;BME280;30484;52.382;5.260;2023-02-04T12:04:04;103801.84;;;14.67;100.00
44765;BME280;30484;52.382;5.260;2023-02-04T12:06:35;103794.06;;;14.50;100.00
44765;BME280;30484;52.382;5.260;2023-02-04T12:09:22;103788.41;;;14.65;100.00
44765;BME280;30484;52.382;5.260;2023-02-04T12:11:55;103808.13;;;14.66;100.00
44765;BME280;30484;52.382;5.260;2023-02-04T12:14:30;103808.38;;;14.52;100.00
44765;BME280;30484;52.382;5.260;2023-02-04T12:16:59;103809.50;;;14.40;100.00
44765;BME280;30484;52.382;5.260;2023-02-04T12:19:28;103812.66;;;14.64;100.00
44765;BME280;30484;52.382;5.260;2023-02-04T12:21:57;103804.97;;;14.44;100.00
44765;BME280;30484;52.382;5.260;2023-02-04T12:24:28;103805.00;;;14.41;100.00
44765;BME280;30484;52.382;5.260;2023-02-04T12:26:56;103804.69;;;14.11;100.00
44765;BME280;30484;52.382;5.260;2023-02-04T12:29:25;103814.06;;;14.37;100.00
44765;BME280;30484;52.382;5.260;2023-02-04T12:31:54;103810.91;;;14.13;100.00
44765;BME280;30484;52.382;5.260;2023-02-04T12:34:23;103810.03;;;14.59;100.00
44765;BME280;30484;52.382;5.260;2023-02-04T12:36:52;103802.69;;;14.21;100.00
44765;BME280;30484;52.382;5.260;2023-02-04T12:39:22;103805.25;;;14.28;100.00
44765;BME280;30484;52.382;5.260;2023-02-04T12:41:52;103803.56;;;14.71;100.00
44765;BME280;30484;52.382;5.260;2023-02-04T12:44:21;103799.56;;;14.91;100.00
44765;BME280;30484;52.382;5.260;2023-02-04T12:46:50;103805.66;;;14.54;100.00
44765;BME280;30484;52.382;5.260;2023-02-04T12:49:22;103806.50;;;14.56;100.00
44765;BME280;30484;52.382;5.260;2023-02-04T12:51:52;103794.28;;;14.84;100.00
44765;BME280;30484;52.382;5.260;2023-02-04T12:54:25;103805.56;;;15.04;100.00
44765;BME280;30484;52.382;5.260;2023-02-04T12:56:56;103808.19;;;14.63;100.00
44765;BME280;30484;52.382;5.260;2023-02-04T12:59:26;103802.22;;;14.92;100.00
44765;BME280;30484;52.382;5.260;2023-02-04T13:01:57;103800.81;;;14.73;100.00
44765;BME280;30484;52.382;5.260;2023-02-04T13:04:29;103800.63;;;14.82;100.00
44765;BME280;30484;52.382;5.260;2023-02-04T13:07:05;103799.03;;;15.15;100.00
44765;BME280;30484;52.382;5.260;2023-02-04T13:09:54;103783.34;;;14.94;100.00
44765;BME280;30484;52.382;5.260;2023-02-04T13:12:36;103780.47;;;15.01;100.00
44765;BME280;30484;52.382;5.260;2023-02-04T13:15:33;103784.06;;;15.41;100.00
44765;BME280;30484;52.382;5.260;2023-02-04T13:18:02;103782.84;;;15.15;100.00
44765;BME280;30484;52.382;5.260;2023-02-04T13:20:32;103789.00;;;15.22;100.00
44765;BME280;30484;52.382;5.260;2023-02-04T13:23:05;103793.88;;;15.44;100.00
44765;BME280;30484;52.382;5.260;2023-02-04T13:25:43;103777.34;;;15.59;100.00
44765;BME280;30484;52.382;5.260;2023-02-04T13:28:14;103788.78;;;15.31;100.00
44765;BME280;30484;52.382;5.260;2023-02-04T13:30:50;103785.66;;;15.50;100.00
44765;BME280;30484;52.382;5.260;2023-02-04T13:33:27;103772.13;;;15.14;100.00
44765;BME280;30484;52.382;5.260;2023-02-04T13:36:20;103775.94;;;15.43;100.00
44765;BME280;30484;52.382;5.260;2023-02-04T13:38:59;103773.25;;;15.80;100.00
44765;BME280;30484;52.382;5.260;2023-02-04T13:41:29;103786.72;;;15.80;100.00
44765;BME280;30484;52.382;5.260;2023-02-04T13:44:07;103778.66;;;15.41;100.00
44765;BME280;30484;52.382;5.260;2023-02-04T13:46:36;103772.88;;;15.19;100.00